Terminal Aerodrome Forecast
Issued by NWS

Home | Current Version | Previous Version | Text Only | Print | Product List | Glossary On
Versions: 1 2 3 4 5 6 7 8 9 10 11 12 13 14 15 16 17 18 19 20 21 22 23 24 25 26 27 28 29
000
FTUS41 KBOX 041129
TAFFMH
TAF
KFMH 041129Z 0412/0512 03008KT 4SM BR BKN007 BKN012
     FM041400 03013KT P6SM SCT015
     FM041900 05012G21KT P6SM SCT020
     FM050000 05008KT P6SM FEW250=

USA.gov is the U.S. government's official web portal to all federal, state and local government web resources and services.